createdAt,value
2019-01-18T00:00:51.120Z,5.68
2019-01-18T00:01:50.866Z,5.69
2019-01-18T00:02:51.139Z,5.65
2019-01-18T00:03:50.900Z,5.72
2019-01-18T00:04:51.426Z,5.69
2019-01-18T00:05:51.191Z,5.66
2019-01-18T00:06:51.240Z,5.68
2019-01-18T00:07:51.473Z,5.64
2019-01-18T00:08:50.982Z,5.64
2019-01-18T00:09:51.262Z,5.72
2019-01-18T00:10:51.532Z,5.71
2019-01-18T00:11:51.284Z,5.71
2019-01-18T00:12:51.573Z,5.66
2019-01-18T00:13:51.586Z,5.68
2019-01-18T00:14:51.071Z,5.66
2019-01-18T00:15:51.343Z,5.62
2019-01-18T00:16:51.406Z,5.66
2019-01-18T00:17:51.137Z,5.71
2019-01-18T00:18:51.399Z,5.66
2019-01-18T00:19:51.409Z,5.59
2019-01-18T00:20:51.434Z,5.66
2019-01-18T00:21:51.720Z,5.66
2019-01-18T00:22:51.478Z,5.71
2019-01-18T00:23:51.479Z,5.61
2019-01-18T00:24:51.234Z,5.61
2019-01-18T00:25:51.249Z,5.69
2019-01-18T00:26:51.531Z,5.65
2019-01-18T00:27:51.805Z,5.65
2019-01-18T00:28:51.563Z,5.69
2019-01-18T00:29:51.314Z,5.69
2019-01-18T00:30:51.597Z,5.68
2019-01-18T00:31:51.612Z,5.66
2019-01-18T00:32:51.362Z,5.66
2019-01-18T00:33:51.382Z,5.61
2019-01-18T00:34:51.934Z,5.64
2019-01-18T00:35:51.670Z,5.59
2019-01-18T00:36:51.684Z,5.72
2019-01-18T00:37:51.705Z,5.69
2019-01-18T00:38:51.734Z,5.57
2019-01-18T00:39:51.732Z,5.64
2019-01-18T00:40:51.501Z,5.69
2019-01-18T00:41:51.526Z,5.54
2019-01-18T00:42:51.790Z,5.61
2019-01-18T00:43:51.593Z,5.57
2019-01-18T00:44:51.815Z,5.56
2019-01-18T00:45:51.837Z,5.64
2019-01-18T00:46:52.111Z,5.69
2019-01-18T00:47:51.605Z,5.64
2019-01-18T00:48:51.741Z,5.59
2019-01-18T00:49:51.895Z,5.68
2019-01-18T00:50:51.913Z,5.65
2019-01-18T00:51:51.683Z,5.62
2019-01-18T00:52:51.959Z,5.64
2019-01-18T00:53:51.707Z,5.54
2019-01-18T00:54:51.723Z,5.59
2019-01-18T00:55:52.053Z,5.59
2019-01-18T00:56:52.012Z,5.61
2019-01-18T00:57:52.031Z,5.62
2019-01-18T00:58:51.796Z,5.61
2019-01-18T00:59:51.819Z,5.62
2019-01-18T01:00:52.340Z,5.69
2019-01-18T01:01:52.352Z,5.65
2019-01-18T01:02:52.118Z,5.64
2019-01-18T01:03:52.663Z,5.65
2019-01-18T01:04:52.157Z,5.65
2019-01-18T01:05:51.908Z,5.68
2019-01-18T01:06:52.179Z,5.62
2019-01-18T01:07:51.945Z,5.72
2019-01-18T01:08:52.208Z,5.62
2019-01-18T01:09:52.488Z,5.66
2019-01-18T01:10:51.996Z,5.65
2019-01-18T01:11:52.267Z,5.64
2019-01-18T01:12:52.284Z,5.57
2019-01-18T01:13:52.289Z,5.59
2019-01-18T01:14:52.567Z,5.62
2019-01-18T01:15:52.071Z,5.61
2019-01-18T01:16:52.345Z,5.64
2019-01-18T01:17:52.611Z,5.59
2019-01-18T01:18:52.128Z,5.69
2019-01-18T01:19:52.407Z,5.59
2019-01-18T01:20:52.455Z,5.64
2019-01-18T01:21:52.167Z,5.65
2019-01-18T01:22:52.190Z,5.57
2019-01-18T01:23:52.203Z,5.64
2019-01-18T01:24:52.470Z,5.68
2019-01-18T01:25:52.490Z,5.72
2019-01-18T01:26:52.511Z,5.61
2019-01-18T01:27:52.264Z,5.57
2019-01-18T01:28:52.554Z,5.64
2019-01-18T01:29:52.306Z,5.61
2019-01-18T01:30:52.582Z,5.59
2019-01-18T01:31:52.844Z,5.59
2019-01-18T01:32:52.868Z,5.57
2019-01-18T01:33:52.365Z,5.56
2019-01-18T01:34:52.372Z,5.56
2019-01-18T01:35:52.402Z,5.59
2019-01-18T01:36:52.403Z,5.65
2019-01-18T01:37:52.682Z,5.53
2019-01-18T01:38:52.438Z,5.64
2019-01-18T01:39:52.998Z,5.64
2019-01-18T01:40:52.924Z,5.59
2019-01-18T01:41:52.489Z,5.64
2019-01-18T01:42:52.795Z,5.62
2019-01-18T01:43:52.526Z,5.61
2019-01-18T01:44:52.536Z,5.65
2019-01-18T01:45:52.561Z,5.64
2019-01-18T01:46:52.824Z,5.59
2019-01-18T01:47:52.844Z,5.66
2019-01-18T01:48:52.612Z,5.62
2019-01-18T01:49:53.150Z,5.57
2019-01-18T01:50:53.161Z,5.59
2019-01-18T01:51:52.661Z,5.59
2019-01-18T01:52:52.931Z,5.66
2019-01-18T01:53:52.937Z,5.65
2019-01-18T01:54:52.961Z,5.61
2019-01-18T01:55:52.714Z,5.69
2019-01-18T01:56:53.012Z,5.65
2019-01-18T01:57:52.753Z,5.61
2019-01-18T01:58:52.770Z,5.59
2019-01-18T01:59:54.606Z,5.64
2019-01-18T02:00:52.805Z,5.64
2019-01-18T02:01:53.083Z,5.59
2019-01-18T02:02:52.907Z,5.53
2019-01-18T02:03:53.102Z,5.61
2019-01-18T02:04:52.871Z,5.59
2019-01-18T02:05:53.136Z,5.61
2019-01-18T02:06:53.152Z,5.59
2019-01-18T02:07:53.169Z,5.51
2019-01-18T02:08:53.445Z,5.53
2019-01-18T02:09:52.949Z,5.53
2019-01-18T02:10:53.226Z,5.59
2019-01-18T02:11:53.252Z,5.65
2019-01-18T02:12:52.996Z,5.57
2019-01-18T02:13:53.272Z,5.61
2019-01-18T02:14:53.553Z,5.53
2019-01-18T02:15:53.299Z,5.53
2019-01-18T02:16:53.055Z,5.54
2019-01-18T02:17:53.081Z,5.61
2019-01-18T02:18:53.100Z,5.59
2019-01-18T02:19:53.371Z,5.51
2019-01-18T02:20:53.379Z,5.57
2019-01-18T02:21:53.146Z,5.53
2019-01-18T02:22:53.431Z,5.56
2019-01-18T02:23:53.168Z,5.56
2019-01-18T02:24:53.706Z,5.56
2019-01-18T02:25:53.718Z,5.56
2019-01-18T02:26:53.479Z,5.56
2019-01-18T02:27:53.512Z,5.56
2019-01-18T02:28:53.791Z,5.48
2019-01-18T02:29:58.832Z,5.53
2019-01-18T02:30:53.556Z,5.51
2019-01-18T02:31:53.831Z,5.5
2019-01-18T02:32:53.589Z,5.48
2019-01-18T02:33:53.608Z,5.51
2019-01-18T02:34:53.345Z,5.51
2019-01-18T02:35:53.637Z,5.48
2019-01-18T02:36:53.665Z,5.5
2019-01-18T02:37:53.943Z,5.47
2019-01-18T02:38:53.427Z,5.47
2019-01-18T02:39:53.431Z,5.46
2019-01-18T02:40:53.719Z,5.5
2019-01-18T02:41:53.989Z,5.48
2019-01-18T02:42:53.992Z,5.54
2019-01-18T02:43:54.046Z,5.53
2019-01-18T02:44:54.039Z,5.47
2019-01-18T02:45:54.040Z,5.47
2019-01-18T02:46:53.800Z,5.5
2019-01-18T02:47:53.833Z,5.5
2019-01-18T02:48:53.855Z,5.47
2019-01-18T02:49:53.863Z,5.48
2019-01-18T02:50:54.123Z,5.47
2019-01-18T02:51:53.888Z,5.46
2019-01-18T02:52:53.639Z,5.48
2019-01-18T02:53:53.652Z,5.54
2019-01-18T02:54:53.941Z,5.5
2019-01-18T02:55:53.961Z,5.5
2019-01-18T02:56:53.972Z,5.46
2019-01-18T02:57:53.748Z,5.43
2019-01-18T02:58:53.991Z,5.46
2019-01-18T02:59:54.028Z,5.47
2019-01-18T03:00:54.023Z,5.46
2019-01-18T03:01:53.793Z,5.41
2019-01-18T03:02:54.078Z,5.38
2019-01-18T03:03:54.073Z,5.41
2019-01-18T03:04:54.105Z,5.41
2019-01-18T03:05:53.851Z,5.43
2019-01-18T03:06:53.877Z,5.47
2019-01-18T03:07:54.416Z,5.47
2019-01-18T03:08:54.181Z,5.5
2019-01-18T03:09:54.188Z,5.44
2019-01-18T03:10:54.218Z,5.44
2019-01-18T03:11:54.470Z,5.46
2019-01-18T03:12:53.970Z,5.43
2019-01-18T03:13:53.974Z,5.44
2019-01-18T03:14:54.002Z,5.41
2019-01-18T03:15:54.004Z,5.41
2019-01-18T03:16:54.280Z,5.41
2019-01-18T03:17:54.316Z,5.36
2019-01-18T03:18:54.073Z,5.36
2019-01-18T03:19:54.594Z,5.33
2019-01-18T03:20:54.624Z,5.33
2019-01-18T03:21:54.114Z,5.3
2019-01-18T03:22:54.381Z,5.26
2019-01-18T03:23:54.404Z,5.32
2019-01-18T03:24:54.162Z,5.38
2019-01-18T03:25:54.174Z,5.18
2019-01-18T03:26:54.194Z,5.39
2019-01-18T03:27:54.483Z,5.29
2019-01-18T03:28:54.487Z,5.3
2019-01-18T03:29:54.505Z,5.21
2019-01-18T03:30:54.518Z,5.32
2019-01-18T03:31:54.532Z,5.38
2019-01-18T03:32:54.569Z,5.3
2019-01-18T03:33:54.560Z,5.26
2019-01-18T03:34:54.315Z,5.28
2019-01-18T03:35:54.334Z,5.28
2019-01-18T03:36:54.600Z,5.29
2019-01-18T03:37:54.630Z,5.21
2019-01-18T03:38:54.380Z,5.23
2019-01-18T03:39:54.647Z,5.25
2019-01-18T03:40:54.942Z,5.29
2019-01-18T03:41:54.428Z,5.26
2019-01-18T03:42:54.703Z,5.23
2019-01-18T03:43:54.718Z,5.2
2019-01-18T03:44:54.477Z,5.25
2019-01-18T03:45:54.754Z,5.21
2019-01-18T03:46:54.778Z,5.23
2019-01-18T03:47:54.797Z,5.18
2019-01-18T03:48:54.533Z,5.21
2019-01-18T03:49:54.815Z,5.17
2019-01-18T03:50:54.568Z,5.12
2019-01-18T03:51:54.842Z,5.12
2019-01-18T03:52:54.901Z,5.12
2019-01-18T03:53:54.623Z,5.14
2019-01-18T03:54:55.165Z,5.18
2019-01-18T03:55:54.664Z,5.15
2019-01-18T03:56:54.930Z,5.14
2019-01-18T03:57:55.214Z,5.21
2019-01-18T03:58:54.717Z,5.15
2019-01-18T03:59:54.976Z,5.14
2019-01-18T04:00:54.732Z,5.1
2019-01-18T04:01:55.004Z,5.17
2019-01-18T04:02:55.299Z,5.12
2019-01-18T04:03:55.293Z,5.14
2019-01-18T04:04:55.318Z,5.14
2019-01-18T04:05:55.068Z,5.14
2019-01-18T04:06:55.085Z,5.14
2019-01-18T04:07:55.114Z,5.14
2019-01-18T04:08:55.113Z,5.12
2019-01-18T04:09:54.869Z,5.18
2019-01-18T04:10:55.151Z,5.18
2019-01-18T04:11:55.263Z,5.14
2019-01-18T04:12:55.469Z,5.17
2019-01-18T04:13:55.200Z,5.14
2019-01-18T04:14:54.948Z,5.17
2019-01-18T04:15:55.491Z,5.14
2019-01-18T04:16:54.982Z,5.12
2019-01-18T04:17:55.280Z,5.1
2019-01-18T04:18:55.038Z,5.12
2019-01-18T04:19:55.599Z,5.18
2019-01-18T04:20:55.302Z,5.18
2019-01-18T04:21:55.582Z,5.12
2019-01-18T04:22:55.071Z,5.1
2019-01-18T04:23:55.625Z,5.11
2019-01-18T04:24:55.367Z,5.15
2019-01-18T04:25:55.381Z,5.15
2019-01-18T04:26:55.139Z,5.12
2019-01-18T04:27:55.159Z,5.12
2019-01-18T04:28:55.432Z,5.17
2019-01-18T04:29:55.189Z,5.15
2019-01-18T04:30:55.480Z,5.12
2019-01-18T04:31:55.745Z,5.12
2019-01-18T04:32:55.835Z,5.17
2019-01-18T04:33:55.525Z,5.08
2019-01-18T04:34:55.535Z,5.14
2019-01-18T04:35:55.543Z,5.12
2019-01-18T04:36:55.570Z,5.17
2019-01-18T04:37:55.576Z,5.15
2019-01-18T04:38:55.599Z,5.1
2019-01-18T04:39:55.868Z,5.12
2019-01-18T04:40:55.370Z,5.12
2019-01-18T04:41:55.386Z,5
2019-01-18T04:42:55.665Z,5.07
2019-01-18T04:43:55.676Z,5.14
2019-01-18T04:44:55.430Z,5.07
2019-01-18T04:45:55.699Z,5.1
2019-01-18T04:46:55.618Z,5.02
2019-01-18T04:47:55.489Z,5
2019-01-18T04:48:55.487Z,5.04
2019-01-18T04:49:55.769Z,5.1
2019-01-18T04:50:55.517Z,4.99
2019-01-18T04:51:56.103Z,5.02
2019-01-18T04:52:55.564Z,5.08
2019-01-18T04:53:55.840Z,5.02
2019-01-18T04:54:55.858Z,5.05
2019-01-18T04:55:55.881Z,5.05
2019-01-18T04:56:55.638Z,5.12
2019-01-18T04:57:55.650Z,5.05
2019-01-18T04:58:55.905Z,5.02
2019-01-18T04:59:55.664Z,5.07
2019-01-18T05:00:55.965Z,5.04
2019-01-18T05:01:55.952Z,4.99
2019-01-18T05:02:55.718Z,5.02
2019-01-18T05:03:55.733Z,5.15
2019-01-18T05:04:55.743Z,5
2019-01-18T05:05:55.760Z,4.96
2019-01-18T05:06:55.781Z,5.07
2019-01-18T05:07:55.783Z,4.97
2019-01-18T05:08:55.820Z,4.93
2019-01-18T05:09:55.822Z,4.9
2019-01-18T05:10:56.094Z,4.93
2019-01-18T05:11:56.116Z,4.93
2019-01-18T05:12:55.874Z,5.04
2019-01-18T05:13:56.159Z,4.89
2019-01-18T05:14:55.966Z,4.92
2019-01-18T05:15:55.925Z,4.9
2019-01-18T05:16:56.197Z,4.9
2019-01-18T05:17:56.224Z,4.92
2019-01-18T05:18:56.219Z,4.99
2019-01-18T05:19:56.005Z,4.96
2019-01-18T05:20:56.265Z,5
2019-01-18T05:21:56.266Z,4.94
2019-01-18T05:22:56.280Z,4.92
2019-01-18T05:23:56.310Z,4.93
2019-01-18T05:24:56.060Z,4.99
2019-01-18T05:25:56.595Z,4.97
2019-01-18T05:26:56.346Z,4.93
2019-01-18T05:27:56.383Z,4.92
2019-01-18T05:28:56.377Z,4.96
2019-01-18T05:29:56.395Z,4.94
2019-01-18T05:30:56.413Z,4.99
2019-01-18T05:31:56.694Z,4.9
2019-01-18T05:32:56.706Z,4.96
2019-01-18T05:33:56.462Z,4.93
2019-01-18T05:34:56.747Z,4.94
2019-01-18T05:35:56.763Z,4.93
2019-01-18T05:36:56.501Z,4.96
2019-01-18T05:37:56.522Z,4.94
2019-01-18T05:38:56.827Z,4.92
2019-01-18T05:39:56.293Z,4.94
2019-01-18T05:40:56.832Z,4.93
2019-01-18T05:41:56.847Z,4.92
2019-01-18T05:42:56.337Z,4.96
2019-01-18T05:43:56.628Z,4.99
2019-01-18T05:44:56.638Z,5.02
2019-01-18T05:45:56.385Z,4.92
2019-01-18T05:46:56.414Z,4.89
2019-01-18T05:47:57.002Z,4.9
2019-01-18T05:48:56.688Z,4.9
2019-01-18T05:49:56.461Z,5.02
2019-01-18T05:50:56.982Z,5.02
2019-01-18T05:51:56.498Z,4.94
2019-01-18T05:52:56.767Z,5.02
2019-01-18T05:53:56.514Z,4.99
2019-01-18T05:54:56.797Z,4.94
2019-01-18T05:55:56.812Z,4.93
2019-01-18T05:56:56.823Z,5.05
2019-01-18T05:57:56.592Z,4.94
2019-01-18T05:58:57.123Z,5
2019-01-18T05:59:56.618Z,4.89
2019-01-18T06:01:00.361Z,4.92
2019-01-18T06:01:57.154Z,5.08
2019-01-18T06:02:56.909Z,4.94
2019-01-18T06:03:56.673Z,5
2019-01-18T06:04:56.688Z,4.94
2019-01-18T06:05:57.222Z,4.93
2019-01-18T06:06:56.983Z,5.05
2019-01-18T06:07:56.996Z,4.96
2019-01-18T06:08:57.008Z,4.96
2019-01-18T06:09:57.279Z,4.92
2019-01-18T06:10:56.784Z,4.93
2019-01-18T06:11:57.330Z,4.93
2019-01-18T06:12:57.325Z,5.07
2019-01-18T06:13:57.080Z,5.04
2019-01-18T06:14:56.850Z,4.92
2019-01-18T06:15:56.857Z,4.93
2019-01-18T06:16:57.132Z,4.9
2019-01-18T06:17:57.152Z,4.99
2019-01-18T06:18:57.169Z,4.96
2019-01-18T06:19:57.186Z,4.9
2019-01-18T06:20:57.199Z,4.93
2019-01-18T06:21:57.465Z,4.96
2019-01-18T06:22:56.970Z,4.92
2019-01-18T06:23:56.981Z,4.92
2019-01-18T06:24:57.264Z,4.93
2019-01-18T06:25:57.526Z,4.9
2019-01-18T06:26:57.311Z,4.93
2019-01-18T06:27:57.333Z,4.96
2019-01-18T06:28:57.326Z,4.97
2019-01-18T06:29:57.346Z,5.02
2019-01-18T06:31:04.086Z,5.05
2019-01-18T06:31:57.118Z,4.92
2019-01-18T06:32:57.117Z,5.07
2019-01-18T06:33:57.147Z,5.04
2019-01-18T06:34:57.414Z,5.02
2019-01-18T06:35:57.435Z,5.08
2019-01-18T06:36:57.452Z,5
2019-01-18T06:37:57.206Z,5.07
2019-01-18T06:38:57.750Z,4.94
2019-01-18T06:39:57.741Z,5.07
2019-01-18T06:40:57.499Z,5.05
2019-01-18T06:41:57.528Z,4.96
2019-01-18T06:42:57.786Z,4.97
2019-01-18T06:43:57.552Z,5.07
2019-01-18T06:44:57.566Z,4.97
2019-01-18T06:45:57.592Z,5.08
2019-01-18T06:46:57.352Z,5.05
2019-01-18T06:47:57.613Z,5.05
2019-01-18T06:48:57.365Z,5.1
2019-01-18T06:49:57.653Z,5.07
2019-01-18T06:50:57.657Z,5.07
2019-01-18T06:51:57.688Z,5.07
2019-01-18T06:52:57.442Z,5.04
2019-01-18T06:53:57.715Z,5.1
2019-01-18T06:54:57.470Z,4.97
2019-01-18T06:55:57.476Z,5.05
2019-01-18T06:56:57.758Z,4.94
2019-01-18T06:57:57.510Z,5.05
2019-01-18T06:58:57.788Z,5.04
2019-01-18T06:59:57.539Z,5.05
2019-01-18T07:00:57.827Z,5.04
2019-01-18T07:01:58.100Z,5.05
2019-01-18T07:02:57.588Z,5.05
2019-01-18T07:03:58.952Z,4.94
2019-01-18T07:04:57.881Z,5.05
2019-01-18T07:05:57.904Z,5
2019-01-18T07:06:57.932Z,5.02
2019-01-18T07:07:57.942Z,4.97
2019-01-18T07:08:57.939Z,5
2019-01-18T07:09:57.693Z,4.96
2019-01-18T07:10:57.974Z,4.96
2019-01-18T07:11:57.739Z,4.94
2019-01-18T07:12:58.010Z,4.94
2019-01-18T07:13:58.028Z,5.02
2019-01-18T07:14:57.784Z,5
2019-01-18T07:15:58.051Z,5.1
2019-01-18T07:16:58.333Z,5
2019-01-18T07:17:57.830Z,5.05
2019-01-18T07:18:58.418Z,4.94
2019-01-18T07:19:58.123Z,4.99
2019-01-18T07:20:58.137Z,5.08
2019-01-18T07:21:58.143Z,5.1
2019-01-18T07:22:58.159Z,4.97
2019-01-18T07:23:58.181Z,5.1
2019-01-18T07:24:57.941Z,5.02
2019-01-18T07:25:58.227Z,5.02
2019-01-18T07:26:58.228Z,5.05
2019-01-18T07:27:57.992Z,4.99
2019-01-18T07:28:57.999Z,4.99
2019-01-18T07:29:58.271Z,4.97
2019-01-18T07:30:58.026Z,5.02
2019-01-18T07:31:58.051Z,5.08
2019-01-18T07:32:58.580Z,4.99
2019-01-18T07:33:58.586Z,5.14
2019-01-18T07:34:58.350Z,5.05
2019-01-18T07:35:58.620Z,4.99
2019-01-18T07:36:58.640Z,5.02
2019-01-18T07:37:58.395Z,5.11
2019-01-18T07:39:02.715Z,5.1
2019-01-18T07:39:58.424Z,5.07
2019-01-18T07:40:58.182Z,5.15
2019-01-18T07:41:58.203Z,5.02
2019-01-18T07:42:58.743Z,5.02
2019-01-18T07:43:58.495Z,5.02
2019-01-18T07:44:58.512Z,4.97
2019-01-18T07:45:58.271Z,5
2019-01-18T07:46:58.814Z,5.07
2019-01-18T07:47:58.561Z,5.1
2019-01-18T07:48:58.593Z,5.02
2019-01-18T07:49:58.580Z,5.04
2019-01-18T07:50:58.347Z,5.05
2019-01-18T07:51:58.618Z,5.07
2019-01-18T07:52:58.632Z,5.07
2019-01-18T07:53:58.654Z,5.08
2019-01-18T07:54:58.403Z,5.05
2019-01-18T07:55:58.950Z,5.07
2019-01-18T07:56:58.700Z,5.11
2019-01-18T07:57:58.977Z,5.04
2019-01-18T07:58:58.985Z,5.08
2019-01-18T07:59:58.487Z,5.05
2019-01-18T08:00:59.775Z,5.11
2019-01-18T08:01:59.054Z,5.11
2019-01-18T08:02:58.804Z,5.05
2019-01-18T08:03:59.060Z,5.11
2019-01-18T08:04:58.815Z,5.04
2019-01-18T08:05:58.852Z,5.04
2019-01-18T08:06:58.863Z,5.11
2019-01-18T08:07:59.441Z,5.1
2019-01-18T08:08:58.890Z,5.04
2019-01-18T08:09:58.908Z,5.07
2019-01-18T08:10:59.185Z,5.07
2019-01-18T08:11:58.680Z,5.07
2019-01-18T08:12:58.951Z,5.02
2019-01-18T08:13:58.706Z,5.11
2019-01-18T08:14:58.720Z,5.07
2019-01-18T08:15:58.738Z,5.14
2019-01-18T08:16:58.751Z,5.2
2019-01-18T08:17:58.760Z,5.07
2019-01-18T08:18:59.292Z,5.08
2019-01-18T08:19:58.804Z,5.08
2019-01-18T08:20:58.814Z,5.17
2019-01-18T08:21:59.097Z,5.14
2019-01-18T08:22:58.899Z,5.14
2019-01-18T08:23:59.135Z,5.17
2019-01-18T08:24:58.881Z,5.17
2019-01-18T08:25:59.417Z,5.2
2019-01-18T08:26:59.433Z,5.14
2019-01-18T08:27:58.930Z,5.17
2019-01-18T08:28:58.939Z,5.18
2019-01-18T08:29:59.213Z,5.21
2019-01-18T08:30:58.965Z,5.23
2019-01-18T08:31:59.257Z,5.26
2019-01-18T08:32:59.006Z,5.21
2019-01-18T08:34:00.348Z,5.28
2019-01-18T08:34:59.550Z,5.23
2019-01-18T08:35:59.313Z,5.26
2019-01-18T08:36:59.320Z,5.29
2019-01-18T08:37:59.342Z,5.23
2019-01-18T08:38:59.103Z,5.29
2019-01-18T08:39:59.377Z,5.3
2019-01-18T08:40:59.131Z,5.23
2019-01-18T08:41:59.156Z,5.36
2019-01-18T08:42:59.415Z,5.35
2019-01-18T08:43:59.452Z,5.33
2019-01-18T08:44:59.457Z,5.3
2019-01-18T08:45:59.485Z,5.41
2019-01-18T08:46:59.475Z,5.41
2019-01-18T08:47:59.752Z,5.32
2019-01-18T08:48:59.535Z,5.33
2019-01-18T08:49:59.288Z,5.3
2019-01-18T08:50:59.550Z,5.36
2019-01-18T08:51:59.832Z,5.35
2019-01-18T08:52:59.840Z,5.38
2019-01-18T08:53:59.849Z,5.36
2019-01-18T08:54:59.645Z,5.35
2019-01-18T08:55:59.369Z,5.36
2019-01-18T08:56:59.390Z,5.39
2019-01-18T08:57:59.677Z,5.39
2019-01-18T08:58:59.670Z,5.38
2019-01-18T08:59:59.683Z,5.38
2019-01-18T09:00:59.449Z,5.41
2019-01-18T09:01:59.470Z,5.43
2019-01-18T09:02:59.474Z,5.38
2019-01-18T09:03:59.752Z,5.41
2019-01-18T09:04:59.763Z,5.44
2019-01-18T09:06:00.043Z,5.46
2019-01-18T09:07:00.050Z,5.47
2019-01-18T09:07:59.960Z,5.5
2019-01-18T09:08:59.827Z,5.46
2019-01-18T09:09:59.849Z,5.46
2019-01-18T09:10:59.599Z,5.51
2019-01-18T09:11:59.614Z,5.46
2019-01-18T09:12:59.904Z,5.53
2019-01-18T09:14:02.381Z,5.57
2019-01-18T09:14:59.795Z,5.56
2019-01-18T09:16:00.194Z,5.57
2019-01-18T09:16:59.704Z,5.54
2019-01-18T09:18:00.030Z,5.56
2019-01-18T09:18:59.984Z,5.54
2019-01-18T09:19:59.750Z,5.59
2019-01-18T09:20:59.754Z,5.59
2019-01-18T09:21:59.770Z,5.54
2019-01-18T09:22:59.796Z,5.53
2019-01-18T09:24:01.084Z,5.56
2019-01-18T09:25:00.227Z,5.54
2019-01-18T09:25:59.837Z,5.5
2019-01-18T09:27:00.369Z,5.59
2019-01-18T09:28:00.321Z,5.56
2019-01-18T09:29:00.401Z,5.61
2019-01-18T09:30:00.186Z,5.64
2019-01-18T09:30:59.918Z,5.62
2019-01-18T09:32:00.221Z,5.57
2019-01-18T09:32:59.959Z,5.64
2019-01-18T09:34:00.219Z,5.57
2019-01-18T09:35:00.238Z,5.66
2019-01-18T09:36:00.272Z,5.56
2019-01-18T09:37:00.270Z,5.61
2019-01-18T09:38:00.300Z,5.62
2019-01-18T09:39:00.312Z,5.57
2019-01-18T09:40:00.080Z,5.71
2019-01-18T09:41:00.354Z,5.66
2019-01-18T09:42:00.345Z,5.72
2019-01-18T09:43:00.162Z,5.66
2019-01-18T09:44:00.653Z,5.64
2019-01-18T09:45:00.402Z,5.64
2019-01-18T09:46:00.152Z,5.75
2019-01-18T09:47:00.429Z,5.69
2019-01-18T09:48:00.697Z,5.68
2019-01-18T09:49:00.209Z,5.65
2019-01-18T09:50:00.217Z,5.76
2019-01-18T09:51:00.248Z,5.75
2019-01-18T09:52:00.243Z,5.76
2019-01-18T09:53:00.531Z,5.86
2019-01-18T09:54:00.279Z,5.79
2019-01-18T09:55:00.554Z,5.73
2019-01-18T09:56:00.566Z,5.84
2019-01-18T09:57:00.592Z,5.8
2019-01-18T09:58:00.614Z,5.82
2019-01-18T09:59:00.624Z,5.83
2019-01-18T10:00:00.633Z,5.87
2019-01-18T10:01:00.405Z,5.87
2019-01-18T10:02:00.663Z,5.87
2019-01-18T10:03:00.480Z,5.9
2019-01-18T10:04:00.962Z,5.89
2019-01-18T10:05:00.451Z,5.91
2019-01-18T10:06:00.726Z,5.87
2019-01-18T10:07:00.489Z,5.97
2019-01-18T10:08:01.017Z,5.97
2019-01-18T10:09:00.782Z,6.07
2019-01-18T10:10:00.540Z,6.08
2019-01-18T10:11:00.548Z,6.07
2019-01-18T10:12:00.566Z,6.05
2019-01-18T10:13:00.847Z,6.17
2019-01-18T10:14:00.863Z,6.12
2019-01-18T10:15:00.616Z,6.14
2019-01-18T10:16:00.908Z,6.07
2019-01-18T10:17:01.160Z,6.09
2019-01-18T10:18:05.065Z,6.17
2019-01-18T10:19:00.941Z,6.09
2019-01-18T10:20:00.956Z,6.24
2019-01-18T10:21:01.223Z,6.17
2019-01-18T10:22:00.731Z,6.16
2019-01-18T10:23:01.275Z,6.16
2019-01-18T10:24:01.275Z,6.17
2019-01-18T10:25:00.780Z,6.19
2019-01-18T10:26:00.801Z,6.12
2019-01-18T10:27:01.082Z,6.14
2019-01-18T10:28:01.084Z,6.22
2019-01-18T10:29:01.095Z,6.2
2019-01-18T10:30:00.856Z,6.07
2019-01-18T10:31:01.122Z,6.08
2019-01-18T10:32:01.425Z,6.16
2019-01-18T10:33:01.160Z,6.05
2019-01-18T10:34:01.182Z,6.11
2019-01-18T10:35:00.940Z,6.07
2019-01-18T10:36:00.949Z,6.02
2019-01-18T10:37:01.490Z,6.07
2019-01-18T10:38:01.493Z,6.11
2019-01-18T10:39:00.992Z,6.07
2019-01-18T10:40:01.279Z,6.05
2019-01-18T10:41:01.032Z,6.04
2019-01-18T10:42:01.558Z,5.99
2019-01-18T10:43:01.320Z,6.04
2019-01-18T10:44:05.899Z,5.98
2019-01-18T10:45:01.382Z,6.07
2019-01-18T10:46:01.364Z,6.07
2019-01-18T10:47:01.384Z,5.98
2019-01-18T10:48:02.263Z,5.98
2019-01-18T10:49:01.425Z,6.02
2019-01-18T10:50:01.426Z,6.02
2019-01-18T10:51:01.198Z,5.94
2019-01-18T10:52:01.217Z,5.97
2019-01-18T10:53:01.477Z,5.98
2019-01-18T10:54:01.750Z,6.01
2019-01-18T10:55:01.257Z,6.04
2019-01-18T10:56:01.531Z,5.99
2019-01-18T10:57:01.542Z,6.01
2019-01-18T10:58:01.566Z,5.99
2019-01-18T10:59:01.327Z,5.97
2019-01-18T11:00:01.589Z,5.87
2019-01-18T11:01:01.355Z,5.87
2019-01-18T11:02:11.447Z,5.99
2019-01-18T11:03:01.642Z,5.94
2019-01-18T11:04:02.169Z,5.91
2019-01-18T11:05:01.710Z,5.99
2019-01-18T11:06:01.682Z,5.94
2019-01-18T11:07:01.439Z,5.89
2019-01-18T11:08:01.714Z,5.89
2019-01-18T11:09:01.990Z,5.87
2019-01-18T11:10:01.745Z,5.84
2019-01-18T11:11:02.023Z,5.93
2019-01-18T11:12:01.561Z,5.98
2019-01-18T11:13:01.543Z,5.91
2019-01-18T11:14:02.342Z,5.91
2019-01-18T11:15:01.564Z,5.86
2019-01-18T11:16:01.845Z,5.91
2019-01-18T11:17:01.857Z,5.91
2019-01-18T11:18:01.886Z,5.9
2019-01-18T11:19:01.898Z,5.93
2019-01-18T11:20:02.173Z,5.9
2019-01-18T11:21:01.676Z,5.9
2019-01-18T11:22:02.204Z,5.86
2019-01-18T11:23:01.696Z,5.89
2019-01-18T11:24:02.116Z,5.9
2019-01-18T11:25:02.255Z,5.76
2019-01-18T11:26:01.743Z,5.84
2019-01-18T11:27:01.772Z,5.87
2019-01-18T11:28:02.044Z,5.86
2019-01-18T11:29:01.801Z,5.84
2019-01-18T11:30:01.807Z,5.84
2019-01-18T11:31:02.099Z,5.76
2019-01-18T11:32:01.838Z,5.86
2019-01-18T11:33:02.381Z,5.89
2019-01-18T11:34:01.871Z,5.76
2019-01-18T11:35:01.888Z,5.79
2019-01-18T11:36:02.182Z,5.84
2019-01-18T11:37:02.616Z,5.84
2019-01-18T11:38:01.962Z,5.89
2019-01-18T11:39:02.479Z,5.73
2019-01-18T11:40:02.239Z,5.76
2019-01-18T11:41:02.242Z,5.86
2019-01-18T11:42:05.269Z,5.93
2019-01-18T11:43:02.032Z,5.87
2019-01-18T11:44:02.038Z,5.89
2019-01-18T11:45:02.058Z,5.89
2019-01-18T11:46:02.325Z,5.87
2019-01-18T11:47:02.082Z,5.87
2019-01-18T11:48:02.352Z,5.86
2019-01-18T11:49:02.262Z,5.9
2019-01-18T11:50:02.391Z,5.89
2019-01-18T11:51:02.152Z,5.9
2019-01-18T11:52:02.417Z,5.89
2019-01-18T11:53:02.448Z,5.91
2019-01-18T11:54:02.195Z,5.9
2019-01-18T11:55:02.602Z,5.9
2019-01-18T11:56:02.495Z,5.98
2019-01-18T11:57:02.509Z,5.9
2019-01-18T11:58:02.792Z,5.87
2019-01-18T11:59:02.536Z,5.89
2019-01-18T12:00:02.557Z,5.89
2019-01-18T12:01:02.302Z,5.9
2019-01-18T12:02:02.590Z,5.87
2019-01-18T12:03:02.878Z,6.01
2019-01-18T12:04:02.711Z,6.01
2019-01-18T12:05:02.892Z,6.04
2019-01-18T12:06:02.396Z,6.01
2019-01-18T12:07:02.713Z,6.02
2019-01-18T12:08:02.430Z,6.01
2019-01-18T12:09:02.695Z,5.98
2019-01-18T12:10:02.472Z,6.01
2019-01-18T12:11:02.718Z,6.02
2019-01-18T12:12:02.477Z,6.01
2019-01-18T12:13:02.508Z,6.05
2019-01-18T12:14:02.783Z,6.02
2019-01-18T12:15:02.807Z,6.04
2019-01-18T12:16:02.802Z,6.04
2019-01-18T12:17:02.821Z,6.02
2019-01-18T12:18:03.284Z,6.07
2019-01-18T12:19:02.858Z,6.04
2019-01-18T12:20:02.865Z,6.09
2019-01-18T12:21:02.627Z,6.08
2019-01-18T12:22:02.647Z,6.16
2019-01-18T12:23:03.177Z,6.08
2019-01-18T12:24:03.034Z,6.17
2019-01-18T12:25:02.688Z,6.11
2019-01-18T12:26:02.709Z,6.17
2019-01-18T12:27:02.986Z,6.07
2019-01-18T12:28:02.742Z,6.09
2019-01-18T12:29:02.900Z,6.12
2019-01-18T12:30:03.027Z,6.14
2019-01-18T12:31:02.806Z,6.16
2019-01-18T12:32:03.065Z,6.24
2019-01-18T12:33:03.357Z,6.27
2019-01-18T12:34:02.843Z,6.12
2019-01-18T12:35:03.370Z,6.17
2019-01-18T12:36:03.388Z,6.27
2019-01-18T12:37:03.757Z,6.26
2019-01-18T12:38:02.902Z,6.28
2019-01-18T12:39:03.184Z,6.22
2019-01-18T12:40:03.199Z,6.26
2019-01-18T12:41:02.958Z,6.31
2019-01-18T12:42:02.966Z,6.27
2019-01-18T12:43:02.986Z,6.3
2019-01-18T12:44:03.259Z,6.28
2019-01-18T12:45:03.824Z,6.3
2019-01-18T12:46:03.545Z,6.3
2019-01-18T12:47:03.311Z,6.28
2019-01-18T12:48:03.320Z,6.19
2019-01-18T12:49:03.408Z,6.24
2019-01-18T12:50:03.361Z,6.2
2019-01-18T12:51:03.471Z,6.3
2019-01-18T12:52:03.380Z,6.28
2019-01-18T12:53:03.409Z,6.17
2019-01-18T12:54:03.420Z,6.12
2019-01-18T12:55:03.442Z,6.16
2019-01-18T12:56:03.457Z,6.11
2019-01-18T12:57:03.464Z,6.11
2019-01-18T12:58:03.476Z,6.11
2019-01-18T12:59:03.242Z,6.09
2019-01-18T13:00:03.263Z,6.05
2019-01-18T13:01:03.783Z,6.11
2019-01-18T13:02:03.291Z,6.12
2019-01-18T13:03:03.350Z,6.27
2019-01-18T13:04:03.589Z,6.14
2019-01-18T13:05:03.602Z,6.24
2019-01-18T13:06:03.371Z,6.3
2019-01-18T13:07:03.644Z,6.26
2019-01-18T13:08:03.644Z,6.28
2019-01-18T13:09:03.705Z,6.27
2019-01-18T13:10:03.671Z,6.42
2019-01-18T13:11:03.688Z,6.39
2019-01-18T13:12:03.456Z,6.35
2019-01-18T13:13:03.472Z,6.46
2019-01-18T13:14:05.302Z,6.45
2019-01-18T13:15:03.770Z,6.57
2019-01-18T13:16:03.782Z,6.46
2019-01-18T13:17:04.056Z,6.48
2019-01-18T13:18:03.808Z,6.54
2019-01-18T13:19:04.075Z,6.57
2019-01-18T13:20:03.829Z,6.6
2019-01-18T13:21:03.864Z,6.72
2019-01-18T13:22:03.622Z,6.75